sensor_id;sensor_type;location;lat;lon;timestamp;pressure;altitude;pressure_sealevel;temperature;humidity
73453;BME280;61687;56.232;43.854;2023-08-06T00:00:45;101202.44;;;20.49;76.88
73453;BME280;61687;56.232;43.854;2023-08-06T00:03:11;101202.84;;;20.47;77.19
73453;BME280;61687;56.232;43.854;2023-08-06T00:05:37;101202.47;;;20.45;76.95
73453;BME280;61687;56.232;43.854;2023-08-06T00:08:03;101194.13;;;20.45;77.09
73453;BME280;61687;56.232;43.854;2023-08-06T00:10:29;101203.66;;;20.48;77.09
73453;BME280;61687;56.232;43.854;2023-08-06T00:12:55;101199.28;;;20.47;76.98
73453;BME280;61687;56.232;43.854;2023-08-06T00:15:22;101205.25;;;20.45;76.94
73453;BME280;61687;56.232;43.854;2023-08-06T00:17:48;101208.47;;;20.43;77.05
73453;BME280;61687;56.232;43.854;2023-08-06T00:20:14;101201.72;;;20.41;76.97
73453;BME280;61687;56.232;43.854;2023-08-06T00:22:40;101206.16;;;20.38;77.21
73453;BME280;61687;56.232;43.854;2023-08-06T00:25:06;101211.75;;;20.35;77.35
73453;BME280;61687;56.232;43.854;2023-08-06T00:27:33;101207.78;;;20.32;77.42
73453;BME280;61687;56.232;43.854;2023-08-06T00:30:00;101204.63;;;20.30;77.54
73453;BME280;61687;56.232;43.854;2023-08-06T00:32:26;101201.47;;;20.28;77.54
73453;BME280;61687;56.232;43.854;2023-08-06T00:34:53;101203.06;;;20.25;77.66
73453;BME280;61687;56.232;43.854;2023-08-06T00:37:19;101196.72;;;20.25;77.62
73453;BME280;61687;56.232;43.854;2023-08-06T00:39:45;101203.88;;;20.26;77.53
73453;BME280;61687;56.232;43.854;2023-08-06T00:42:12;101203.50;;;20.24;77.46
73453;BME280;61687;56.232;43.854;2023-08-06T00:44:39;101217.00;;;20.25;77.52
73453;BME280;61687;56.232;43.854;2023-08-06T00:47:06;101210.22;;;20.26;77.61
73453;BME280;61687;56.232;43.854;2023-08-06T00:49:34;101213.81;;;20.27;77.57
73453;BME280;61687;56.232;43.854;2023-08-06T00:52:01;101222.97;;;20.27;77.40
73453;BME280;61687;56.232;43.854;2023-08-06T00:54:28;101220.97;;;20.24;77.35
73453;BME280;61687;56.232;43.854;2023-08-06T00:56:55;101232.53;;;20.23;77.43
73453;BME280;61687;56.232;43.854;2023-08-06T00:59:22;101221.44;;;20.19;77.44
73453;BME280;61687;56.232;43.854;2023-08-06T01:01:48;101225.41;;;20.18;77.47
73453;BME280;61687;56.232;43.854;2023-08-06T01:04:15;101224.25;;;20.15;77.65
73453;BME280;61687;56.232;43.854;2023-08-06T01:06:47;101230.22;;;20.14;77.84
73453;BME280;61687;56.232;43.854;2023-08-06T01:12:42;101221.50;;;20.12;77.79
73453;BME280;61687;56.232;43.854;2023-08-06T01:15:28;101224.75;;;20.07;77.83
73453;BME280;61687;56.232;43.854;2023-08-06T01:17:54;101223.16;;;20.06;77.88
73453;BME280;61687;56.232;43.854;2023-08-06T01:20:21;101227.13;;;20.05;77.83
73453;BME280;61687;56.232;43.854;2023-08-06T01:22:47;101231.88;;;20.08;78.02
73453;BME280;61687;56.232;43.854;2023-08-06T01:25:15;101228.28;;;20.11;77.91
73453;BME280;61687;56.232;43.854;2023-08-06T01:27:48;101224.69;;;20.10;77.54
73453;BME280;61687;56.232;43.854;2023-08-06T01:30:22;101224.31;;;20.08;77.62
73453;BME280;61687;56.232;43.854;2023-08-06T01:32:54;101227.09;;;20.08;77.72
73453;BME280;61687;56.232;43.854;2023-08-06T01:35:22;101227.09;;;20.08;77.88
73453;BME280;61687;56.232;43.854;2023-08-06T01:37:48;101226.31;;;20.08;77.73
73453;BME280;61687;56.232;43.854;2023-08-06T01:40:14;101227.13;;;20.05;77.89
73453;BME280;61687;56.232;43.854;2023-08-06T01:42:40;101225.94;;;20.06;77.82
73453;BME280;61687;56.232;43.854;2023-08-06T01:45:08;101222.34;;;20.05;77.84
73453;BME280;61687;56.232;43.854;2023-08-06T01:47:34;101227.13;;;20.05;77.94
73453;BME280;61687;56.232;43.854;2023-08-06T01:50:00;101227.13;;;20.05;77.93
73453;BME280;61687;56.232;43.854;2023-08-06T01:52:27;101231.09;;;20.07;77.86
73453;BME280;61687;56.232;43.854;2023-08-06T01:54:54;101230.69;;;20.09;77.83
73453;BME280;61687;56.232;43.854;2023-08-06T01:57:20;101236.25;;;20.09;77.66
73453;BME280;61687;56.232;43.854;2023-08-06T01:59:45;101241.00;;;20.08;77.78
73453;BME280;61687;56.232;43.854;2023-08-06T02:02:12;101239.81;;;20.09;77.81
73453;BME280;61687;56.232;43.854;2023-08-06T02:04:38;101240.59;;;20.10;77.91
73453;BME280;61687;56.232;43.854;2023-08-06T02:07:04;101243.78;;;20.12;77.87
73453;BME280;61687;56.232;43.854;2023-08-06T02:09:31;101246.13;;;20.13;77.96
73453;BME280;61687;56.232;43.854;2023-08-06T02:11:57;101247.69;;;20.18;77.88
73453;BME280;61687;56.232;43.854;2023-08-06T02:14:23;101246.84;;;20.21;77.77
73453;BME280;61687;56.232;43.854;2023-08-06T02:16:49;101243.25;;;20.24;77.67
73453;BME280;61687;56.232;43.854;2023-08-06T02:19:15;101247.19;;;20.30;77.53
73453;BME280;61687;56.232;43.854;2023-08-06T02:21:41;101243.19;;;20.32;77.59
73453;BME280;61687;56.232;43.854;2023-08-06T02:24:07;101242.38;;;20.35;77.57
73453;BME280;61687;56.232;43.854;2023-08-06T02:26:33;101244.31;;;20.38;77.55
73453;BME280;61687;56.232;43.854;2023-08-06T02:28:59;101246.28;;;20.41;77.58
73453;BME280;61687;56.232;43.854;2023-08-06T02:31:25;101243.84;;;20.47;77.38
73453;BME280;61687;56.232;43.854;2023-08-06T02:33:51;101253.38;;;20.49;77.64
73453;BME280;61687;56.232;43.854;2023-08-06T02:36:17;101250.53;;;20.53;77.85
73453;BME280;61687;56.232;43.854;2023-08-06T02:38:43;101246.50;;;20.57;77.82
73453;BME280;61687;56.232;43.854;2023-08-06T02:41:09;101243.25;;;20.63;77.84
73453;BME280;61687;56.232;43.854;2023-08-06T02:43:35;101250.78;;;20.66;77.82
73453;BME280;61687;56.232;43.854;2023-08-06T02:46:01;101255.91;;;20.71;78.19
73453;BME280;61687;56.232;43.854;2023-08-06T02:48:28;101252.25;;;20.78;78.26
73453;BME280;61687;56.232;43.854;2023-08-06T02:50:57;101259.34;;;20.86;78.08
73453;BME280;61687;56.232;43.854;2023-08-06T02:53:25;101265.66;;;20.94;77.88
73453;BME280;61687;56.232;43.854;2023-08-06T02:55:51;101259.22;;;20.97;77.55
73453;BME280;61687;56.232;43.854;2023-08-06T02:58:22;101258.75;;;21.02;77.58
73453;BME280;61687;56.232;43.854;2023-08-06T03:01:06;101261.81;;;21.11;78.13
73453;BME280;61687;56.232;43.854;2023-08-06T03:03:41;101264.09;;;21.20;77.99
73453;BME280;61687;56.232;43.854;2023-08-06T03:06:08;101260.88;;;21.25;77.96
73453;BME280;61687;56.232;43.854;2023-08-06T03:08:41;101257.97;;;21.33;77.96
73453;BME280;61687;56.232;43.854;2023-08-06T03:11:07;101259.03;;;21.42;77.79
73453;BME280;61687;56.232;43.854;2023-08-06T03:13:34;101263.72;;;21.49;77.64
73453;BME280;61687;56.232;43.854;2023-08-06T03:16:00;101264.81;;;21.55;77.58
73453;BME280;61687;56.232;43.854;2023-08-06T03:18:29;101266.72;;;21.62;77.20
73453;BME280;61687;56.232;43.854;2023-08-06T03:20:57;101268.69;;;21.65;76.60
73453;BME280;61687;56.232;43.854;2023-08-06T03:23:26;101276.94;;;21.72;76.40
73453;BME280;61687;56.232;43.854;2023-08-06T03:25:52;101275.28;;;21.79;75.91
73453;BME280;61687;56.232;43.854;2023-08-06T03:28:18;101276.38;;;21.85;75.66
73453;BME280;61687;56.232;43.854;2023-08-06T03:30:45;101275.47;;;21.92;75.42
73453;BME280;61687;56.232;43.854;2023-08-06T03:33:12;101284.16;;;21.97;75.34
73453;BME280;61687;56.232;43.854;2023-08-06T03:35:38;101288.03;;;22.04;75.13
73453;BME280;61687;56.232;43.854;2023-08-06T03:38:04;101296.25;;;22.14;74.20
73453;BME280;61687;56.232;43.854;2023-08-06T03:40:30;101289.31;;;22.23;73.65
73453;BME280;61687;56.232;43.854;2023-08-06T03:42:58;101284.41;;;22.30;72.81
73453;BME280;61687;56.232;43.854;2023-08-06T03:45:24;101279.06;;;22.40;72.63
73453;BME280;61687;56.232;43.854;2023-08-06T03:47:50;101279.34;;;22.45;72.61
73453;BME280;61687;56.232;43.854;2023-08-06T03:50:17;101278.47;;;22.52;73.32
73453;BME280;61687;56.232;43.854;2023-08-06T03:52:43;101282.72;;;22.61;72.40
73453;BME280;61687;56.232;43.854;2023-08-06T03:55:09;101276.63;;;22.66;71.87
73453;BME280;61687;56.232;43.854;2023-08-06T03:57:35;101276.91;;;22.71;71.83
73453;BME280;61687;56.232;43.854;2023-08-06T04:00:02;101288.66;;;22.83;71.75
73453;BME280;61687;56.232;43.854;2023-08-06T04:02:41;101291.69;;;22.92;71.43
73453;BME280;61687;56.232;43.854;2023-08-06T04:05:08;101286.38;;;22.98;71.29
73453;BME280;61687;56.232;43.854;2023-08-06T04:07:35;101290.25;;;23.04;71.38
73453;BME280;61687;56.232;43.854;2023-08-06T04:10:03;101287.31;;;23.11;71.12
73453;BME280;61687;56.232;43.854;2023-08-06T04:12:31;101288.72;;;23.20;70.96
73453;BME280;61687;56.232;43.854;2023-08-06T04:14:59;101290.97;;;23.28;70.98
73453;BME280;61687;56.232;43.854;2023-08-06T04:17:25;101290.81;;;23.36;71.60
73453;BME280;61687;56.232;43.854;2023-08-06T04:19:52;101290.72;;;23.39;70.75
73453;BME280;61687;56.232;43.854;2023-08-06T04:22:19;101293.00;;;23.44;70.61
73453;BME280;61687;56.232;43.854;2023-08-06T04:24:45;101294.00;;;23.54;70.52
73453;BME280;61687;56.232;43.854;2023-08-06T04:27:12;101296.19;;;23.63;70.48
73453;BME280;61687;56.232;43.854;2023-08-06T04:29:39;101292.91;;;23.68;70.10
73453;BME280;61687;56.232;43.854;2023-08-06T04:32:08;101297.50;;;23.75;69.32
73453;BME280;61687;56.232;43.854;2023-08-06T04:34:35;101294.66;;;23.79;68.80
73453;BME280;61687;56.232;43.854;2023-08-06T04:37:02;101295.25;;;23.86;68.27
73453;BME280;61687;56.232;43.854;2023-08-06T04:39:28;101301.47;;;23.94;68.28
73453;BME280;61687;56.232;43.854;2023-08-06T04:41:56;101295.00;;;23.97;67.94
73453;BME280;61687;56.232;43.854;2023-08-06T04:44:24;101289.31;;;24.01;67.53
73453;BME280;61687;56.232;43.854;2023-08-06T04:46:50;101282.06;;;24.04;67.69
73453;BME280;61687;56.232;43.854;2023-08-06T04:49:17;101293.81;;;24.15;68.35
73453;BME280;61687;56.232;43.854;2023-08-06T04:51:43;101292.84;;;24.22;67.79
73453;BME280;61687;56.232;43.854;2023-08-06T04:54:09;101295.88;;;24.27;67.54
73453;BME280;61687;56.232;43.854;2023-08-06T04:56:35;101287.41;;;24.31;66.86
73453;BME280;61687;56.232;43.854;2023-08-06T04:59:01;101289.66;;;24.36;66.11
73453;BME280;61687;56.232;43.854;2023-08-06T05:01:27;101292.63;;;24.46;66.35
73453;BME280;61687;56.232;43.854;2023-08-06T05:03:54;101289.88;;;24.58;66.26
73453;BME280;61687;56.232;43.854;2023-08-06T05:06:19;101272.88;;;24.66;65.99
73453;BME280;61687;56.232;43.854;2023-08-06T05:08:45;101282.25;;;24.76;66.21
73453;BME280;61687;56.232;43.854;2023-08-06T05:11:11;101269.16;;;24.85;65.58
73453;BME280;61687;56.232;43.854;2023-08-06T05:13:37;101266.50;;;24.95;65.27
73453;BME280;61687;56.232;43.854;2023-08-06T05:16:03;101277.03;;;25.04;65.00
73453;BME280;61687;56.232;43.854;2023-08-06T05:18:29;101282.00;;;25.12;64.67
73453;BME280;61687;56.232;43.854;2023-08-06T05:20:56;101282.69;;;25.17;63.63
73453;BME280;61687;56.232;43.854;2023-08-06T05:23:22;101282.22;;;25.18;62.61
73453;BME280;61687;56.232;43.854;2023-08-06T05:25:48;101285.28;;;25.24;62.75
73453;BME280;61687;56.232;43.854;2023-08-06T05:28:14;101287.97;;;25.27;62.84
73453;BME280;61687;56.232;43.854;2023-08-06T05:30:41;101287.84;;;25.31;62.51
73453;BME280;61687;56.232;43.854;2023-08-06T05:33:07;101290.47;;;25.38;62.86
73453;BME280;61687;56.232;43.854;2023-08-06T05:35:33;101284.56;;;25.49;62.87
73453;BME280;61687;56.232;43.854;2023-08-06T05:37:58;101290.69;;;25.57;61.84
73453;BME280;61687;56.232;43.854;2023-08-06T05:40:24;101280.50;;;25.63;61.84
73453;BME280;61687;56.232;43.854;2023-08-06T05:42:55;101284.22;;;25.73;61.81
73453;BME280;61687;56.232;43.854;2023-08-06T05:45:21;101278.69;;;25.82;61.40
73453;BME280;61687;56.232;43.854;2023-08-06T05:47:50;101277.66;;;25.89;61.39
73453;BME280;61687;56.232;43.854;2023-08-06T05:50:16;101272.59;;;25.97;61.31
73453;BME280;61687;56.232;43.854;2023-08-06T05:52:42;101267.97;;;26.03;60.29
73453;BME280;61687;56.232;43.854;2023-08-06T05:55:08;101271.44;;;26.07;59.39
73453;BME280;61687;56.232;43.854;2023-08-06T05:57:34;101273.69;;;26.12;59.20
73453;BME280;61687;56.232;43.854;2023-08-06T06:00:00;101280.00;;;26.17;57.80
73453;BME280;61687;56.232;43.854;2023-08-06T06:02:29;101278.19;;;26.23;57.03
73453;BME280;61687;56.232;43.854;2023-08-06T06:04:55;101282.31;;;26.31;56.80
73453;BME280;61687;56.232;43.854;2023-08-06T06:07:21;101281.59;;;26.40;57.04
73453;BME280;61687;56.232;43.854;2023-08-06T06:09:47;101277.66;;;26.50;57.55
73453;BME280;61687;56.232;43.854;2023-08-06T06:12:12;101278.63;;;26.56;57.01
73453;BME280;61687;56.232;43.854;2023-08-06T06:14:38;101280.41;;;26.63;56.58
73453;BME280;61687;56.232;43.854;2023-08-06T06:17:04;101280.41;;;26.63;55.24
73453;BME280;61687;56.232;43.854;2023-08-06T06:19:30;101287.00;;;26.69;55.48
73453;BME280;61687;56.232;43.854;2023-08-06T06:21:56;101277.19;;;26.74;55.27
73453;BME280;61687;56.232;43.854;2023-08-06T06:24:23;101263.97;;;26.84;55.16
73453;BME280;61687;56.232;43.854;2023-08-06T06:26:49;101271.72;;;26.93;55.21
73453;BME280;61687;56.232;43.854;2023-08-06T06:29:15;101269.88;;;26.99;54.16
73453;BME280;61687;56.232;43.854;2023-08-06T06:31:40;101270.53;;;27.03;53.50
73453;BME280;61687;56.232;43.854;2023-08-06T06:34:06;101264.91;;;27.03;52.36
73453;BME280;61687;56.232;43.854;2023-08-06T06:36:32;101258.69;;;27.08;52.96
73453;BME280;61687;56.232;43.854;2023-08-06T06:38:58;101260.41;;;27.06;52.57
73453;BME280;61687;56.232;43.854;2023-08-06T06:41:24;101260.72;;;27.08;52.26
73453;BME280;61687;56.232;43.854;2023-08-06T06:43:50;101250.75;;;27.16;52.30
73453;BME280;61687;56.232;43.854;2023-08-06T06:46:15;101257.06;;;27.29;52.93
73453;BME280;61687;56.232;43.854;2023-08-06T06:48:41;101260.25;;;27.41;52.01
73453;BME280;61687;56.232;43.854;2023-08-06T06:51:07;101260.75;;;27.49;52.81
73453;BME280;61687;56.232;43.854;2023-08-06T06:53:33;101260.50;;;27.56;52.37
73453;BME280;61687;56.232;43.854;2023-08-06T06:56:03;101263.50;;;27.62;51.52
73453;BME280;61687;56.232;43.854;2023-08-06T06:58:30;101253.00;;;27.62;51.98
73453;BME280;61687;56.232;43.854;2023-08-06T07:00:56;101257.56;;;27.69;52.50
73453;BME280;61687;56.232;43.854;2023-08-06T07:03:22;101261.31;;;27.75;51.83
73453;BME280;61687;56.232;43.854;2023-08-06T07:05:49;101257.91;;;27.80;51.22
73453;BME280;61687;56.232;43.854;2023-08-06T07:08:15;101251.34;;;27.83;50.60
73453;BME280;61687;56.232;43.854;2023-08-06T07:10:42;101252.75;;;27.88;51.54
73453;BME280;61687;56.232;43.854;2023-08-06T07:13:09;101251.47;;;27.89;49.67
73453;BME280;61687;56.232;43.854;2023-08-06T07:15:35;101254.03;;;27.96;50.55
73453;BME280;61687;56.232;43.854;2023-08-06T07:18:01;101256.06;;;28.05;49.92
73453;BME280;61687;56.232;43.854;2023-08-06T07:20:26;101257.66;;;28.16;50.54
73453;BME280;61687;56.232;43.854;2023-08-06T07:22:58;101258.13;;;28.23;48.33
73453;BME280;61687;56.232;43.854;2023-08-06T07:25:24;101250.94;;;28.32;47.87
73453;BME280;61687;56.232;43.854;2023-08-06T07:27:50;101252.03;;;28.43;47.61
73453;BME280;61687;56.232;43.854;2023-08-06T07:30:15;101254.84;;;28.53;49.23
73453;BME280;61687;56.232;43.854;2023-08-06T07:32:41;101248.09;;;28.60;49.79
73453;BME280;61687;56.232;43.854;2023-08-06T07:35:07;101252.31;;;28.64;49.09
73453;BME280;61687;56.232;43.854;2023-08-06T07:37:40;101250.75;;;28.73;49.90
73453;BME280;61687;56.232;43.854;2023-08-06T07:40:06;101248.88;;;28.69;49.77
73453;BME280;61687;56.232;43.854;2023-08-06T07:42:32;101240.91;;;28.59;50.21
73453;BME280;61687;56.232;43.854;2023-08-06T07:44:59;101248.91;;;28.51;48.04
73453;BME280;61687;56.232;43.854;2023-08-06T07:47:24;101249.84;;;28.48;47.25
73453;BME280;61687;56.232;43.854;2023-08-06T07:49:51;101245.00;;;28.39;46.32
73453;BME280;61687;56.232;43.854;2023-08-06T07:52:17;101243.91;;;28.46;47.13
73453;BME280;61687;56.232;43.854;2023-08-06T07:54:43;101244.03;;;28.33;45.42
73453;BME280;61687;56.232;43.854;2023-08-06T07:57:09;101244.66;;;28.46;46.81
73453;BME280;61687;56.232;43.854;2023-08-06T07:59:35;101247.97;;;28.45;45.56
73453;BME280;61687;56.232;43.854;2023-08-06T08:02:01;101246.38;;;28.43;45.15
73453;BME280;61687;56.232;43.854;2023-08-06T08:04:27;101247.78;;;28.48;46.26
73453;BME280;61687;56.232;43.854;2023-08-06T08:06:53;101239.03;;;28.46;44.20
73453;BME280;61687;56.232;43.854;2023-08-06T08:09:19;101245.63;;;28.43;44.20
73453;BME280;61687;56.232;43.854;2023-08-06T08:11:45;101237.00;;;28.37;46.51
73453;BME280;61687;56.232;43.854;2023-08-06T08:14:26;101231.81;;;28.45;47.30
73453;BME280;61687;56.232;43.854;2023-08-06T08:17:05;101231.50;;;28.52;45.89
73453;BME280;61687;56.232;43.854;2023-08-06T08:19:34;101231.19;;;28.60;45.24
73453;BME280;61687;56.232;43.854;2023-08-06T08:21:59;101231.00;;;28.63;45.61
73453;BME280;61687;56.232;43.854;2023-08-06T08:24:25;101232.72;;;28.70;44.72
73453;BME280;61687;56.232;43.854;2023-08-06T08:26:52;101231.78;;;28.73;44.41
73453;BME280;61687;56.232;43.854;2023-08-06T08:29:21;101227.41;;;28.81;45.33
73453;BME280;61687;56.232;43.854;2023-08-06T08:31:48;101221.13;;;28.87;44.71
73453;BME280;61687;56.232;43.854;2023-08-06T08:34:17;101229.91;;;28.89;44.28
73453;BME280;61687;56.232;43.854;2023-08-06T08:36:43;101226.63;;;28.90;44.13
73453;BME280;61687;56.232;43.854;2023-08-06T08:39:09;101222.03;;;28.93;43.62
73453;BME280;61687;56.232;43.854;2023-08-06T08:41:36;101224.09;;;28.92;42.94
73453;BME280;61687;56.232;43.854;2023-08-06T08:44:03;101223.13;;;28.95;43.64
73453;BME280;61687;56.232;43.854;2023-08-06T08:46:33;101227.66;;;29.02;42.93
73453;BME280;61687;56.232;43.854;2023-08-06T08:49:02;101226.72;;;29.05;42.97
73453;BME280;61687;56.232;43.854;2023-08-06T08:51:30;101218.19;;;29.14;44.44
73453;BME280;61687;56.232;43.854;2023-08-06T08:53:56;101225.09;;;29.13;43.83
73453;BME280;61687;56.232;43.854;2023-08-06T08:56:23;101229.56;;;28.96;42.44
73453;BME280;61687;56.232;43.854;2023-08-06T08:58:50;101225.47;;;28.97;44.46
73453;BME280;61687;56.232;43.854;2023-08-06T09:01:20;101224.19;;;29.07;44.17
73453;BME280;61687;56.232;43.854;2023-08-06T09:03:46;101222.63;;;29.06;43.36
73453;BME280;61687;56.232;43.854;2023-08-06T09:06:13;101216.63;;;29.13;44.29
73453;BME280;61687;56.232;43.854;2023-08-06T09:08:50;101216.94;;;29.16;42.53
73453;BME280;61687;56.232;43.854;2023-08-06T09:11:17;101220.06;;;29.18;41.70
73453;BME280;61687;56.232;43.854;2023-08-06T09:13:47;101214.13;;;29.16;42.55
73453;BME280;61687;56.232;43.854;2023-08-06T09:16:13;101211.94;;;29.10;43.92
73453;BME280;61687;56.232;43.854;2023-08-06T09:18:39;101214.47;;;29.08;45.27
73453;BME280;61687;56.232;43.854;2023-08-06T09:21:05;101212.91;;;29.07;46.81
73453;BME280;61687;56.232;43.854;2023-08-06T09:23:31;101201.63;;;29.07;46.94
73453;BME280;61687;56.232;43.854;2023-08-06T09:25:59;101206.75;;;29.18;46.08
73453;BME280;61687;56.232;43.854;2023-08-06T09:28:37;101215.16;;;29.27;45.56
73453;BME280;61687;56.232;43.854;2023-08-06T09:31:04;101212.16;;;29.40;45.36
73453;BME280;61687;56.232;43.854;2023-08-06T09:33:30;101209.75;;;29.48;45.74
73453;BME280;61687;56.232;43.854;2023-08-06T09:35:56;101209.47;;;29.46;45.84
73453;BME280;61687;56.232;43.854;2023-08-06T09:38:22;101198.81;;;29.41;46.41
73453;BME280;61687;56.232;43.854;2023-08-06T09:40:47;101204.78;;;29.43;46.12
73453;BME280;61687;56.232;43.854;2023-08-06T09:43:13;101196.13;;;29.47;46.27
73453;BME280;61687;56.232;43.854;2023-08-06T09:45:39;101195.97;;;29.50;46.99
73453;BME280;61687;56.232;43.854;2023-08-06T09:48:07;101191.38;;;29.53;46.38
73453;BME280;61687;56.232;43.854;2023-08-06T09:50:37;101190.19;;;29.45;43.59
73453;BME280;61687;56.232;43.854;2023-08-06T09:53:05;101196.00;;;29.41;45.19
73453;BME280;61687;56.232;43.854;2023-08-06T09:55:32;101196.13;;;29.37;45.51
73453;BME280;61687;56.232;43.854;2023-08-06T09:57:59;101194.56;;;29.36;46.33
73453;BME280;61687;56.232;43.854;2023-08-06T10:00:25;101190.19;;;29.35;46.69
73453;BME280;61687;56.232;43.854;2023-08-06T10:02:53;101189.59;;;29.31;46.41
73453;BME280;61687;56.232;43.854;2023-08-06T10:05:22;101187.19;;;29.39;46.54
73453;BME280;61687;56.232;43.854;2023-08-06T10:07:49;101187.06;;;29.42;47.10
73453;BME280;61687;56.232;43.854;2023-08-06T10:10:19;101175.41;;;29.50;44.46
73453;BME280;61687;56.232;43.854;2023-08-06T10:12:52;101164.53;;;29.58;42.66
73453;BME280;61687;56.232;43.854;2023-08-06T10:15:25;101168.66;;;29.72;44.72
73453;BME280;61687;56.232;43.854;2023-08-06T10:17:54;101174.22;;;29.81;41.04
73453;BME280;61687;56.232;43.854;2023-08-06T10:20:21;101171.13;;;30.03;42.13
73453;BME280;61687;56.232;43.854;2023-08-06T10:23:18;101158.50;;;30.89;42.39
73453;BME280;61687;56.232;43.854;2023-08-06T10:25:53;101153.09;;;32.62;37.95
73453;BME280;61687;56.232;43.854;2023-08-06T10:28:21;101154.94;;;34.13;35.43
73453;BME280;61687;56.232;43.854;2023-08-06T10:30:47;101147.88;;;35.34;33.69
73453;BME280;61687;56.232;43.854;2023-08-06T10:33:14;101147.78;;;36.46;32.11
73453;BME280;61687;56.232;43.854;2023-08-06T10:35:44;101147.63;;;36.94;29.12
73453;BME280;61687;56.232;43.854;2023-08-06T10:38:11;101143.63;;;37.28;27.35
73453;BME280;61687;56.232;43.854;2023-08-06T10:40:41;101147.84;;;36.71;27.25
73453;BME280;61687;56.232;43.854;2023-08-06T10:43:07;101135.78;;;35.81;31.16
73453;BME280;61687;56.232;43.854;2023-08-06T10:45:36;101142.28;;;34.94;32.33
73453;BME280;61687;56.232;43.854;2023-08-06T10:48:02;101135.53;;;34.06;33.38
73453;BME280;61687;56.232;43.854;2023-08-06T10:50:28;101134.56;;;33.48;35.06
73453;BME280;61687;56.232;43.854;2023-08-06T10:52:54;101142.56;;;33.01;36.23
73453;BME280;61687;56.232;43.854;2023-08-06T10:55:28;101135.47;;;32.52;37.04
73453;BME280;61687;56.232;43.854;2023-08-06T10:57:55;101131.06;;;32.19;37.83
73453;BME280;61687;56.232;43.854;2023-08-06T11:00:22;101129.47;;;31.92;37.06
73453;BME280;61687;56.232;43.854;2023-08-06T11:02:53;101126.94;;;31.73;38.01
73453;BME280;61687;56.232;43.854;2023-08-06T11:05:19;101120.91;;;31.65;37.85
73453;BME280;61687;56.232;43.854;2023-08-06T11:07:45;101125.19;;;31.55;38.53
73453;BME280;61687;56.232;43.854;2023-08-06T11:10:14;101121.72;;;31.66;39.17
73453;BME280;61687;56.232;43.854;2023-08-06T11:12:39;101122.41;;;32.08;37.71
73453;BME280;61687;56.232;43.854;2023-08-06T11:15:06;101122.09;;;32.53;34.57
73453;BME280;61687;56.232;43.854;2023-08-06T11:17:34;101118.28;;;32.62;36.98
73453;BME280;61687;56.232;43.854;2023-08-06T11:20:02;101112.47;;;32.45;37.23
73453;BME280;61687;56.232;43.854;2023-08-06T11:22:31;101114.59;;;32.23;34.89
73453;BME280;61687;56.232;43.854;2023-08-06T11:24:57;101121.53;;;31.96;36.15
73453;BME280;61687;56.232;43.854;2023-08-06T11:27:26;101120.78;;;31.95;35.48
73453;BME280;61687;56.232;43.854;2023-08-06T11:29:52;101111.22;;;32.25;36.57
73453;BME280;61687;56.232;43.854;2023-08-06T11:32:18;101116.75;;;32.08;34.36
73453;BME280;61687;56.232;43.854;2023-08-06T11:34:44;101109.56;;;31.86;34.52
73453;BME280;61687;56.232;43.854;2023-08-06T11:37:10;101110.56;;;31.83;34.29
73453;BME280;61687;56.232;43.854;2023-08-06T11:39:37;101110.72;;;31.94;35.86
73453;BME280;61687;56.232;43.854;2023-08-06T11:42:03;101109.53;;;32.07;37.28
73453;BME280;61687;56.232;43.854;2023-08-06T11:44:31;101103.50;;;32.52;36.61
73453;BME280;61687;56.232;43.854;2023-08-06T11:47:01;101110.94;;;32.81;32.95
73453;BME280;61687;56.232;43.854;2023-08-06T11:49:41;101103.38;;;33.60;31.10
73453;BME280;61687;56.232;43.854;2023-08-06T11:52:15;101099.16;;;35.91;28.21
73453;BME280;61687;56.232;43.854;2023-08-06T11:54:42;101100.69;;;38.10;27.68
73453;BME280;61687;56.232;43.854;2023-08-06T11:57:09;101107.97;;;39.25;25.84
73453;BME280;61687;56.232;43.854;2023-08-06T11:59:38;101106.56;;;39.18;26.15
73453;BME280;61687;56.232;43.854;2023-08-06T12:02:05;101100.91;;;37.93;26.84
73453;BME280;61687;56.232;43.854;2023-08-06T12:05:02;101106.81;;;36.07;27.52
73453;BME280;61687;56.232;43.854;2023-08-06T12:07:32;101098.78;;;34.99;32.37
73453;BME280;61687;56.232;43.854;2023-08-06T12:09:58;101103.75;;;34.42;33.27
73453;BME280;61687;56.232;43.854;2023-08-06T12:12:25;101097.22;;;33.95;33.35
73453;BME280;61687;56.232;43.854;2023-08-06T12:14:51;101088.75;;;33.29;32.28
73453;BME280;61687;56.232;43.854;2023-08-06T12:17:17;101093.06;;;33.07;32.46
73453;BME280;61687;56.232;43.854;2023-08-06T12:19:44;101093.31;;;33.09;31.83
73453;BME280;61687;56.232;43.854;2023-08-06T12:22:12;101096.91;;;33.04;33.76
73453;BME280;61687;56.232;43.854;2023-08-06T12:24:43;101096.50;;;33.23;33.85
73453;BME280;61687;56.232;43.854;2023-08-06T12:27:09;101091.06;;;33.25;33.69
73453;BME280;61687;56.232;43.854;2023-08-06T12:29:40;101090.25;;;33.19;32.72
73453;BME280;61687;56.232;43.854;2023-08-06T12:32:06;101079.03;;;32.92;33.05
73453;BME280;61687;56.232;43.854;2023-08-06T12:34:32;101083.31;;;32.82;34.29
73453;BME280;61687;56.232;43.854;2023-08-06T12:36:58;101077.00;;;32.61;35.83
73453;BME280;61687;56.232;43.854;2023-08-06T12:39:24;101078.00;;;32.58;36.14
73453;BME280;61687;56.232;43.854;2023-08-06T12:41:50;101075.03;;;32.40;35.53
73453;BME280;61687;56.232;43.854;2023-08-06T12:44:16;101074.38;;;32.57;35.54